Джонки

Карта отелей и гостиниц, располагающихся рядом с аэропортом Джонки :



Джонки Хабаровский край 49° 40' 56.7012" N, 136° 57' 12.5388" E

Джонки Хабаровский край 49° 40' 56.7012" N, 136° 57' 12.5388" E
Код аэродрома ИКАО: 
ZD4Y
Код аэродрома RU: 
ЗД4Ы
Координаты: 
N49.68242° E136.95348°
Превышение над уровнем моря : 
54
Основная полоса: 
03/21
Курс магнитный: 
026/206
Длина основной ВПП: 
940
Ширина основной ВПП: 
40
Покрытие основной ВПП: 
Нетвёрдое (гравий)
Тип: 
Аэродром
Освещение ВПП: 
Нет
Класс аэродрома: 
Статус: 
Недействующий
Принадлежность: 
ГА
Сайт: 
E-mail аэродрома: 
Страна: 
Россия
Регион: 
Хабаровский край
Город: 
Дополнительная информация: 

Найти трансфер

С помощью этой формы Вы можете найти трансфер из аэропорта Джонки в город, аэропорт или вокзал:

Карта места

Javascript is required to view this map.

Погода в аэропортах:

Авиационная погода в Бресте

Регион: 
Погода METAR: 
UMBB 210400Z 17002MPS 4800 BR NSC M01/M02 Q1017 NOSIG
Время наблюдения: 
2020-02-21T04:00:00Z
Температура C: 
-1.0
Точка росы: 
-2.0
Направление ветра: 
170
Скорость ветра: 
4
Метеорологическая видимость: 
2.98
Явления погоды: 
BR
Условия полета: 
IFR
Аэропорт подробнее: 

Авиационная погода в Череповце

Регион: 
Погода METAR: 
ULWC 210400Z 00000MPS 2200 -SNRA BR OVC002 00/M00 Q1016 R21/490150 BECMG 3100 BR BKN003 RMK QBB060 QFE752/1003
Время наблюдения: 
2020-02-21T04:00:00Z
Температура C: 
0.0
Точка росы: 
0.0
Направление ветра: 
0
Скорость ветра: 
0
Метеорологическая видимость: 
1.37
Явления погоды: 
-SN -RA BR
Условия полета: 
LIFR
Аэропорт подробнее: 

Авиационная погода в Дашогузе

Регион: 
Погода METAR: 
UTAT 210400Z 21004KT 9999 -RA OVC100 05/01 Q1012 R08/19//60 NOSIG
Время наблюдения: 
2020-02-21T04:00:00Z
Температура C: 
5.0
Точка росы: 
1.0
Направление ветра: 
210
Скорость ветра: 
4
Метеорологическая видимость: 
6.21
Явления погоды: 
-RA
Условия полета: 
VFR

Авиационная погода в Киркенесе

Регион: 
Погода METAR: 
ENKR 210350Z AUTO 17018KT 7000 -SN VV015 M07/M08 Q0986 RMK WIND 731FT 18032KT
Время наблюдения: 
2020-02-21T03:50:00Z
Температура C: 
-7.0
Точка росы: 
-8.0
Направление ветра: 
170
Скорость ветра: 
18
Метеорологическая видимость: 
4.35
Явления погоды: 
-SN
Условия полета: 
LIFR